createdAt,value
2019-04-14T00:01:54.422Z,12.50
2019-04-14T00:04:31.309Z,17.87
2019-04-14T00:07:03.772Z,14.50
2019-04-14T00:09:36.058Z,15.03
2019-04-14T00:12:10.537Z,14.83
2019-04-14T00:14:42.879Z,14.20
2019-04-14T00:17:15.490Z,13.87
2019-04-14T00:19:47.987Z,14.30
2019-04-14T00:22:20.595Z,14.13
2019-04-14T00:24:53.236Z,16.30
2019-04-14T00:27:25.952Z,15.90
2019-04-14T00:29:58.997Z,13.37
2019-04-14T00:32:46.481Z,14.63
2019-04-14T00:35:40.659Z,13.87
2019-04-14T00:38:17.427Z,13.13
2019-04-14T00:41:15.948Z,18.50
2019-04-14T00:43:59.155Z,15.33
2019-04-14T00:46:49.510Z,12.23
2019-04-14T00:49:22.146Z,14.70
2019-04-14T00:51:55.002Z,15.83
2019-04-14T00:54:28.239Z,14.30
2019-04-14T00:57:00.878Z,14.60
2019-04-14T00:59:33.401Z,16.40
2019-04-14T01:02:05.801Z,16.93
2019-04-14T01:04:38.304Z,16.17
2019-04-14T01:07:10.765Z,14.23
2019-04-14T01:09:44.238Z,14.80
2019-04-14T01:12:17.093Z,14.10
2019-04-14T01:14:49.621Z,14.70
2019-04-14T01:17:22.075Z,14.67
2019-04-14T01:19:54.886Z,15.53
2019-04-14T01:22:27.161Z,14.77
2019-04-14T01:24:59.966Z,16.57
2019-04-14T01:27:32.649Z,14.87
2019-04-14T01:30:06.640Z,16.23
2019-04-14T01:32:39.413Z,17.80
2019-04-14T01:35:11.760Z,16.27
2019-04-14T01:37:44.383Z,17.37
2019-04-14T01:40:18.430Z,15.03
2019-04-14T01:42:51.151Z,17.13
2019-04-14T01:45:23.712Z,15.90
2019-04-14T01:47:57.402Z,17.93
2019-04-14T01:50:51.824Z,17.27
2019-04-14T01:53:43.146Z,15.10
2019-04-14T01:56:36.234Z,16.90
2019-04-14T01:59:08.751Z,15.40
2019-04-14T02:01:41.761Z,19.87
2019-04-14T02:04:13.992Z,17.43
2019-04-14T02:06:46.307Z,18.03
2019-04-14T02:09:18.718Z,20.50
2019-04-14T02:11:51.057Z,16.07
2019-04-14T02:14:23.381Z,15.53
2019-04-14T02:16:58.860Z,17.27
2019-04-14T02:19:30.641Z,17.13
2019-04-14T02:22:03.354Z,16.00
2019-04-14T02:24:35.541Z,18.50
2019-04-14T02:27:07.793Z,15.57
2019-04-14T02:29:40.769Z,16.80
2019-04-14T02:32:42.437Z,18.93
2019-04-14T02:35:20.914Z,17.00
2019-04-14T02:40:34.868Z,19.27
2019-04-14T02:43:17.613Z,15.00
2019-04-14T02:45:35.357Z,15.77
2019-04-14T02:53:18.436Z,15.70
2019-04-14T02:55:48.977Z,13.57
2019-04-14T02:58:26.475Z,17.83
2019-04-14T03:00:58.364Z,15.03
2019-04-14T03:08:45.350Z,13.00
2019-04-14T03:11:09.611Z,13.80
2019-04-14T03:13:44.980Z,14.53
2019-04-14T03:16:23.403Z,15.17
2019-04-14T03:19:07.398Z,12.23
2019-04-14T03:22:12.617Z,13.03
2019-04-14T03:24:37.573Z,14.87
2019-04-14T03:30:46.139Z,14.80
2019-04-14T03:33:24.192Z,15.63
2019-04-14T03:38:15.884Z,14.67
2019-04-14T03:40:45.839Z,14.67
2019-04-14T03:43:19.663Z,15.40
2019-04-14T03:45:53.873Z,13.80
2019-04-14T03:48:48.606Z,15.03
2019-04-14T03:51:06.762Z,15.97
2019-04-14T03:53:44.059Z,15.63
2019-04-14T03:56:17.687Z,15.13
2019-04-14T03:58:51.046Z,14.13
2019-04-14T04:01:23.743Z,14.97
2019-04-14T04:03:56.431Z,14.30
2019-04-14T04:06:29.246Z,15.23
2019-04-14T04:09:01.993Z,13.53
2019-04-14T04:11:34.566Z,14.07
2019-04-14T04:14:07.476Z,14.70
2019-04-14T04:17:05.777Z,14.93
2019-04-14T04:19:43.277Z,14.37
2019-04-14T04:22:34.647Z,13.87
2019-04-14T04:25:31.052Z,14.67
2019-04-14T04:28:25.923Z,16.10
2019-04-14T04:31:20.565Z,15.80
2019-04-14T04:34:03.332Z,14.40
2019-04-14T04:36:40.264Z,15.17
2019-04-14T04:39:21.677Z,13.90
2019-04-14T04:41:53.872Z,17.33
2019-04-14T04:44:27.030Z,15.93
2019-04-14T04:46:59.234Z,15.33
2019-04-14T04:49:32.909Z,16.33
2019-04-14T04:52:06.251Z,16.40
2019-04-14T04:54:38.785Z,16.23
2019-04-14T04:57:11.293Z,15.53
2019-04-14T04:59:43.405Z,13.63
2019-04-14T05:02:15.886Z,16.53
2019-04-14T05:04:48.375Z,20.83
2019-04-14T05:07:21.304Z,14.70
2019-04-14T05:10:13.254Z,18.07
2019-04-14T05:13:03.621Z,19.03
2019-04-14T05:15:57.468Z,14.50
2019-04-14T05:18:29.802Z,16.20
2019-04-14T05:21:02.146Z,17.23
2019-04-14T05:23:34.454Z,15.50
2019-04-14T05:26:07.083Z,15.27
2019-04-14T05:28:39.633Z,14.20
2019-04-14T05:31:12.193Z,15.13
2019-04-14T05:33:44.753Z,12.93
2019-04-14T05:36:17.152Z,14.60
2019-04-14T05:38:49.630Z,14.93
2019-04-14T05:41:22.302Z,14.80
2019-04-14T05:43:58.152Z,14.27
2019-04-14T05:46:29.531Z,14.13
2019-04-14T05:49:02.208Z,14.57
2019-04-14T05:51:35.114Z,14.73
2019-04-14T05:54:07.802Z,14.83
2019-04-14T05:56:40.729Z,14.00
2019-04-14T05:59:13.482Z,16.33
2019-04-14T06:01:46.525Z,14.00
2019-04-14T06:04:19.940Z,11.83
2019-04-14T06:06:52.577Z,12.77
2019-04-14T06:09:25.037Z,12.17
2019-04-14T06:11:57.382Z,12.07
2019-04-14T06:14:29.690Z,10.97
2019-04-14T06:17:02.018Z,12.30
2019-04-14T06:19:37.890Z,11.03
2019-04-14T06:22:08.337Z,10.67
2019-04-14T06:24:40.552Z,11.37
2019-04-14T06:27:12.880Z,9.87
2019-04-14T06:29:45.471Z,10.13
2019-04-14T06:32:27.266Z,11.37
2019-04-14T06:35:12.296Z,10.27
2019-04-14T06:37:54.250Z,9.77
2019-04-14T06:40:29.105Z,10.17
2019-04-14T06:43:01.860Z,11.43
2019-04-14T06:45:34.362Z,11.90
2019-04-14T06:48:06.931Z,11.07
2019-04-14T06:50:39.842Z,11.50
2019-04-14T06:53:12.211Z,10.23
2019-04-14T06:55:44.499Z,11.43
2019-04-14T06:58:16.589Z,11.73
2019-04-14T07:00:49.187Z,12.47
2019-04-14T07:03:21.720Z,13.37
2019-04-14T07:05:53.999Z,11.43
2019-04-14T07:08:26.468Z,12.17
2019-04-14T07:10:58.998Z,10.80
2019-04-14T07:13:31.315Z,12.17
2019-04-14T07:16:03.812Z,13.40
2019-04-14T07:18:35.993Z,13.60
2019-04-14T07:21:08.514Z,15.63
2019-04-14T07:23:40.717Z,13.40
2019-04-14T07:26:13.126Z,14.50
2019-04-14T07:28:56.145Z,13.23
2019-04-14T07:31:44.960Z,12.47
2019-04-14T07:34:37.591Z,14.40
2019-04-14T07:37:28.383Z,14.57
2019-04-14T07:40:23.241Z,12.87
2019-04-14T07:43:06.091Z,14.90
2019-04-14T07:45:51.970Z,16.67
2019-04-14T07:48:42.467Z,14.37
2019-04-14T07:51:40.681Z,14.17
2019-04-14T07:54:18.973Z,16.23
2019-04-14T07:57:19.301Z,16.23
2019-04-14T07:59:56.515Z,18.23
2019-04-14T08:02:34.609Z,16.10
2019-04-14T08:05:10.404Z,15.33
2019-04-14T08:07:43.348Z,16.93
2019-04-14T08:10:15.974Z,16.20
2019-04-14T08:12:48.368Z,17.00
2019-04-14T08:15:20.981Z,17.83
2019-04-14T08:17:53.503Z,17.27
2019-04-14T08:20:27.717Z,18.87
2019-04-14T08:23:00.224Z,18.03
2019-04-14T08:25:32.473Z,16.97
2019-04-14T08:28:04.764Z,18.80
2019-04-14T08:30:36.919Z,18.03
2019-04-14T08:33:09.360Z,17.07
2019-04-14T08:35:41.492Z,17.90
2019-04-14T08:38:14.067Z,17.57
2019-04-14T08:40:46.432Z,22.83
2019-04-14T08:43:29.134Z,19.63
2019-04-14T08:46:23.686Z,18.57
2019-04-14T08:49:01.136Z,18.90
2019-04-14T08:51:37.908Z,17.40
2019-04-14T08:54:27.308Z,18.83
2019-04-14T08:57:10.763Z,19.20
2019-04-14T08:59:58.400Z,18.80
2019-04-14T09:02:47.651Z,18.00
2019-04-14T09:05:38.137Z,15.67
2019-04-14T09:08:18.444Z,17.17
2019-04-14T09:10:55.022Z,17.77
2019-04-14T09:13:27.674Z,19.20
2019-04-14T09:16:00.077Z,19.03
2019-04-14T09:18:32.452Z,18.27
2019-04-14T09:21:04.844Z,17.53
2019-04-14T09:23:37.116Z,17.67
2019-04-14T09:26:09.638Z,17.13
2019-04-14T09:28:42.092Z,17.23
2019-04-14T09:31:14.515Z,18.73
2019-04-14T09:33:46.890Z,16.63
2019-04-14T09:36:20.549Z,16.20
2019-04-14T09:38:52.991Z,14.83
2019-04-14T09:41:25.283Z,18.03
2019-04-14T09:43:57.879Z,16.73
2019-04-14T09:46:30.491Z,18.60
2019-04-14T09:49:02.955Z,18.17
2019-04-14T09:51:35.039Z,18.70
2019-04-14T09:54:07.153Z,16.40
2019-04-14T09:56:39.608Z,17.77
2019-04-14T09:59:11.715Z,15.60
2019-04-14T10:01:44.097Z,18.97
2019-04-14T10:04:16.826Z,18.27
2019-04-14T10:06:49.175Z,16.57
2019-04-14T10:09:21.458Z,18.60
2019-04-14T10:11:56.450Z,16.10
2019-04-14T10:14:27.847Z,15.37
2019-04-14T10:17:01.513Z,16.83
2019-04-14T10:19:33.918Z,16.73
2019-04-14T10:22:06.673Z,16.27
2019-04-14T10:24:38.922Z,16.00
2019-04-14T10:27:11.265Z,18.70
2019-04-14T10:29:43.617Z,19.87
2019-04-14T10:32:15.856Z,15.93
2019-04-14T10:34:48.837Z,17.27
2019-04-14T10:37:21.162Z,19.93
2019-04-14T10:39:53.404Z,17.53
2019-04-14T10:42:25.760Z,16.77
2019-04-14T10:44:58.238Z,20.00
2019-04-14T10:47:30.435Z,17.73
2019-04-14T10:50:03.060Z,18.30
2019-04-14T10:52:35.559Z,16.03
2019-04-14T10:55:08.184Z,18.17
2019-04-14T10:57:40.654Z,18.40
2019-04-14T11:00:16.087Z,16.47
2019-04-14T11:02:49.569Z,19.10
2019-04-14T11:05:22.881Z,20.20
2019-04-14T11:07:57.053Z,18.23
2019-04-14T11:10:29.331Z,17.10
2019-04-14T11:13:03.729Z,17.63
2019-04-14T11:15:39.112Z,18.47
2019-04-14T11:18:11.770Z,18.60
2019-04-14T11:20:43.976Z,19.37
2019-04-14T11:23:16.437Z,17.10
2019-04-14T11:25:49.046Z,17.80
2019-04-14T11:28:22.390Z,18.63
2019-04-14T11:30:57.424Z,16.23
2019-04-14T11:33:33.654Z,17.00
2019-04-14T11:36:25.876Z,18.47
2019-04-14T11:39:05.898Z,19.87
2019-04-14T11:41:40.110Z,15.63
2019-04-14T11:44:13.011Z,17.90
2019-04-14T11:46:45.590Z,16.27
2019-04-14T11:49:20.755Z,15.87
2019-04-14T11:51:55.448Z,18.43
2019-04-14T11:54:27.456Z,15.23
2019-04-14T11:57:00.369Z,16.40
2019-04-14T11:59:39.392Z,16.57
2019-04-14T12:02:18.835Z,17.23
2019-04-14T12:04:58.150Z,18.47
2019-04-14T12:07:44.652Z,17.20
2019-04-14T12:10:20.761Z,13.97
2019-04-14T12:12:54.101Z,17.23
2019-04-14T12:15:26.476Z,16.20
2019-04-14T12:17:59.407Z,15.67
2019-04-14T12:20:31.595Z,16.30
2019-04-14T12:23:03.928Z,15.80
2019-04-14T12:25:36.630Z,15.47
2019-04-14T12:28:09.208Z,15.73
2019-04-14T12:30:42.196Z,15.63
2019-04-14T12:33:15.266Z,14.77
2019-04-14T12:35:47.520Z,15.60
2019-04-14T12:38:19.631Z,18.57
2019-04-14T12:40:52.826Z,16.00
2019-04-14T12:43:43.278Z,15.07
2019-04-14T12:46:43.603Z,14.20
2019-04-14T12:49:26.375Z,15.57
2019-04-14T12:52:21.388Z,14.57
2019-04-14T12:54:51.627Z,14.50
2019-04-14T12:57:41.954Z,12.97
2019-04-14T13:00:50.693Z,17.53
2019-04-14T13:03:24.376Z,15.13
2019-04-14T13:05:57.309Z,13.80
2019-04-14T13:08:29.625Z,17.23
2019-04-14T13:11:02.144Z,15.60
2019-04-14T13:13:34.851Z,17.80
2019-04-14T13:16:07.065Z,14.90
2019-04-14T13:18:39.309Z,15.50
2019-04-14T13:21:11.677Z,13.83
2019-04-14T13:23:44.186Z,12.93
2019-04-14T13:26:16.463Z,14.27
2019-04-14T13:28:48.866Z,14.33
2019-04-14T13:31:21.286Z,14.97
2019-04-14T13:33:54.966Z,13.37
2019-04-14T13:36:27.512Z,15.80
2019-04-14T13:38:59.907Z,14.20
2019-04-14T13:41:32.016Z,19.30
2019-04-14T13:44:04.610Z,14.30
2019-04-14T13:46:36.955Z,13.83
2019-04-14T13:49:09.233Z,13.80
2019-04-14T13:51:41.819Z,12.97
2019-04-14T13:54:14.227Z,12.30
2019-04-14T13:56:46.605Z,12.97
2019-04-14T13:59:19.272Z,16.63
2019-04-14T14:01:51.904Z,13.80
2019-04-14T14:04:24.506Z,12.30
2019-04-14T14:06:56.813Z,14.83
2019-04-14T14:09:29.300Z,12.37
2019-04-14T14:12:24.150Z,16.27
2019-04-14T14:15:24.759Z,11.73
2019-04-14T14:18:16.458Z,12.47
2019-04-14T14:21:23.681Z,12.73
2019-04-14T14:24:13.864Z,14.17
2019-04-14T14:26:47.278Z,12.90
2019-04-14T14:29:19.944Z,13.77
2019-04-14T14:31:53.187Z,10.80
2019-04-14T14:34:26.119Z,11.50
2019-04-14T14:36:58.314Z,11.03
2019-04-14T14:39:30.781Z,12.23
2019-04-14T14:42:03.166Z,12.53
2019-04-14T14:44:46.545Z,14.57
2019-04-14T14:47:22.548Z,13.23
2019-04-14T14:50:20.435Z,11.40
2019-04-14T14:52:52.693Z,10.33
2019-04-14T14:55:25.016Z,12.00
2019-04-14T14:57:57.171Z,15.43
2019-04-14T15:00:35.415Z,11.93
2019-04-14T15:03:08.104Z,13.77
2019-04-14T15:05:40.412Z,12.20
2019-04-14T15:08:12.796Z,11.97
2019-04-14T15:10:45.165Z,12.03
2019-04-14T15:13:17.627Z,13.67
2019-04-14T15:15:50.229Z,12.30
2019-04-14T15:18:22.638Z,15.67
2019-04-14T15:20:54.990Z,12.23
2019-04-14T15:23:27.365Z,12.10
2019-04-14T15:25:59.820Z,12.07
2019-04-14T15:28:32.471Z,11.07
2019-04-14T15:31:04.824Z,13.17
2019-04-14T15:33:37.214Z,10.67
2019-04-14T15:36:09.691Z,10.50
2019-04-14T15:38:42.120Z,9.67
2019-04-14T15:41:14.415Z,12.23
2019-04-14T15:43:47.075Z,10.43
2019-04-14T15:46:19.392Z,12.33
2019-04-14T15:48:51.682Z,10.87
2019-04-14T15:51:23.887Z,9.70
2019-04-14T15:53:56.390Z,14.63
2019-04-14T15:56:50.956Z,11.47
2019-04-14T15:59:42.855Z,11.30
2019-04-14T16:02:30.006Z,14.53
2019-04-14T16:05:12.643Z,11.67
2019-04-14T16:07:55.739Z,12.30
2019-04-14T16:10:47.789Z,14.23
2019-04-14T16:13:36.541Z,11.70
2019-04-14T16:16:40.472Z,13.90
2019-04-14T16:19:17.150Z,11.53
2019-04-14T16:21:49.622Z,13.80
2019-04-14T16:24:21.957Z,14.23
2019-04-14T16:27:12.536Z,14.30
2019-04-14T16:29:54.921Z,12.07
2019-04-14T16:32:35.258Z,10.93
2019-04-14T16:35:14.375Z,13.90
2019-04-14T16:37:47.227Z,11.60
2019-04-14T16:40:19.791Z,12.07
2019-04-14T16:42:52.023Z,12.37
2019-04-14T16:45:24.469Z,12.17
2019-04-14T16:47:56.687Z,13.77
2019-04-14T16:50:29.214Z,14.30
2019-04-14T16:53:20.413Z,14.53
2019-04-14T16:56:16.251Z,14.77
2019-04-14T16:58:54.467Z,9.97
2019-04-14T17:01:31.585Z,13.00
2019-04-14T17:04:03.981Z,10.87
2019-04-14T17:06:36.715Z,12.17
2019-04-14T17:09:09.173Z,11.43
2019-04-14T17:11:41.674Z,11.23
2019-04-14T17:14:29.205Z,13.63
2019-04-14T17:17:19.683Z,11.37
2019-04-14T17:20:17.987Z,9.07
2019-04-14T17:23:08.469Z,12.67
2019-04-14T17:25:52.563Z,14.73
2019-04-14T17:28:48.215Z,12.03
2019-04-14T17:31:55.224Z,11.73
2019-04-14T17:34:47.188Z,10.97
2019-04-14T17:37:39.320Z,12.03
2019-04-14T17:40:24.822Z,12.50
2019-04-14T17:43:13.191Z,11.90
2019-04-14T17:46:00.942Z,11.90
2019-04-14T17:48:57.327Z,11.93
2019-04-14T17:51:37.170Z,12.03
2019-04-14T17:54:28.620Z,17.33
2019-04-14T17:57:18.562Z,11.33
2019-04-14T18:00:03.078Z,13.03
2019-04-14T18:02:55.257Z,13.77
2019-04-14T18:05:45.710Z,10.50
2019-04-14T18:08:34.976Z,14.80
2019-04-14T18:11:13.084Z,10.43
2019-04-14T18:14:04.951Z,13.63
2019-04-14T18:16:55.319Z,12.93
2019-04-14T18:19:36.233Z,12.90
2019-04-14T18:22:09.356Z,12.20
2019-04-14T18:24:42.972Z,14.83
2019-04-14T18:27:15.439Z,11.03
2019-04-14T18:30:08.456Z,12.83
2019-04-14T18:32:46.574Z,12.67
2019-04-14T18:35:41.175Z,11.80
2019-04-14T18:38:39.001Z,9.90
2019-04-14T18:41:18.088Z,10.77
2019-04-14T18:44:05.351Z,10.83
2019-04-14T18:47:06.239Z,14.07
2019-04-14T18:49:48.107Z,12.23
2019-04-14T18:52:38.648Z,8.83
2019-04-14T18:55:33.468Z,11.93
2019-04-14T18:58:29.715Z,12.20
2019-04-14T19:01:09.172Z,10.27
2019-04-14T19:03:41.313Z,11.17
2019-04-14T19:06:14.098Z,10.20
2019-04-14T19:08:46.370Z,7.97
2019-04-14T19:11:35.788Z,10.53
2019-04-14T19:14:09.260Z,7.00
2019-04-14T19:16:44.674Z,12.13
2019-04-14T19:19:18.288Z,8.77
2019-04-14T19:21:50.973Z,8.77
2019-04-14T19:24:23.372Z,7.83
2019-04-14T19:26:55.999Z,8.60
2019-04-14T19:29:28.863Z,8.70
2019-04-14T19:32:01.389Z,9.53
2019-04-14T19:34:33.671Z,7.17
2019-04-14T19:37:06.451Z,8.67
2019-04-14T19:39:38.662Z,10.37
2019-04-14T19:42:11.761Z,8.27
2019-04-14T19:44:44.132Z,7.17
2019-04-14T19:47:16.507Z,8.27
2019-04-14T19:49:48.791Z,8.97
2019-04-14T19:52:21.175Z,13.90
2019-04-14T19:54:53.559Z,8.90
2019-04-14T19:57:26.005Z,8.43
2019-04-14T19:59:58.480Z,5.97
2019-04-14T20:02:31.160Z,11.27
2019-04-14T20:05:04.006Z,8.13
2019-04-14T20:07:36.366Z,6.63
2019-04-14T20:10:09.521Z,14.43
2019-04-14T20:12:42.128Z,8.87
2019-04-14T20:15:17.839Z,8.13
2019-04-14T20:17:55.719Z,9.33
2019-04-14T20:20:50.338Z,6.97
2019-04-14T20:23:45.258Z,6.30
2019-04-14T20:26:35.178Z,8.43
2019-04-14T20:29:13.104Z,9.20
2019-04-14T20:32:13.917Z,6.37
2019-04-14T20:34:46.326Z,5.77
2019-04-14T20:37:18.516Z,7.10
2019-04-14T20:39:51.258Z,8.27
2019-04-14T20:42:23.832Z,6.43
2019-04-14T20:44:56.090Z,10.27
2019-04-14T20:47:28.361Z,7.27
2019-04-14T20:50:01.185Z,7.13
2019-04-14T20:52:33.762Z,7.07
2019-04-14T20:55:08.359Z,6.63
2019-04-14T20:57:40.719Z,10.40
2019-04-14T21:00:13.100Z,7.63
2019-04-14T21:03:11.209Z,9.80
2019-04-14T21:06:01.762Z,7.50
2019-04-14T21:08:52.202Z,8.80
2019-04-14T21:11:42.057Z,10.33
2019-04-14T21:14:31.894Z,8.33
2019-04-14T21:17:10.924Z,8.97
2019-04-14T21:20:00.067Z,13.37
2019-04-14T21:22:39.639Z,6.93
2019-04-14T21:25:40.554Z,11.43
2019-04-14T21:28:44.763Z,8.83
2019-04-14T21:31:25.292Z,8.63
2019-04-14T21:34:08.382Z,10.27
2019-04-14T21:36:58.596Z,11.17
2019-04-14T21:39:53.499Z,7.77
2019-04-14T21:42:25.916Z,8.87
2019-04-14T21:44:58.359Z,10.03
2019-04-14T21:47:30.821Z,8.60
2019-04-14T21:50:04.331Z,12.37
2019-04-14T21:52:39.327Z,8.17
2019-04-14T21:55:11.862Z,7.87
2019-04-14T21:58:21.874Z,10.50
2019-04-14T22:01:43.735Z,9.23
2019-04-14T22:04:34.274Z,10.93
2019-04-14T22:07:41.533Z,7.43
2019-04-14T22:10:32.280Z,10.87
2019-04-14T22:13:04.816Z,9.43
2019-04-14T22:15:37.330Z,10.30
2019-04-14T22:18:09.706Z,7.43
2019-04-14T22:20:42.189Z,8.47
2019-04-14T22:23:14.855Z,6.60
2019-04-14T22:25:47.157Z,6.47
2019-04-14T22:28:20.066Z,8.90
2019-04-14T22:30:52.818Z,9.47
2019-04-14T22:33:25.443Z,8.57
2019-04-14T22:35:58.212Z,10.83
2019-04-14T22:38:30.617Z,6.80
2019-04-14T22:41:03.204Z,8.17
2019-04-14T22:43:35.477Z,8.23
2019-04-14T22:46:08.082Z,7.50
2019-04-14T22:48:40.425Z,8.63
2019-04-14T22:51:12.766Z,8.83
2019-04-14T22:53:45.030Z,7.77
2019-04-14T22:56:17.249Z,10.00
2019-04-14T22:58:49.702Z,7.70
2019-04-14T23:01:25.934Z,6.63
2019-04-14T23:04:12.855Z,9.33
2019-04-14T23:07:03.336Z,8.73
2019-04-14T23:09:45.806Z,10.13
2019-04-14T23:12:41.110Z,11.30
2019-04-14T23:15:23.245Z,8.40
2019-04-14T23:18:02.673Z,6.83
2019-04-14T23:20:45.414Z,8.70
2019-04-14T23:23:43.011Z,9.30
2019-04-14T23:26:15.306Z,7.60
2019-04-14T23:28:47.560Z,7.87
2019-04-14T23:31:19.929Z,7.40
2019-04-14T23:33:52.288Z,9.47
2019-04-14T23:36:24.914Z,10.13
2019-04-14T23:38:57.250Z,9.70
2019-04-14T23:41:29.608Z,9.60
2019-04-14T23:44:01.907Z,7.67
2019-04-14T23:46:34.040Z,7.30
2019-04-14T23:49:06.252Z,6.47
2019-04-14T23:51:39.056Z,6.30
2019-04-14T23:54:11.387Z,8.07
2019-04-14T23:56:43.832Z,9.23
2019-04-14T23:59:16.149Z,9.00
